Time;durP1;ratioP1;P1;durP2;ratioP2;P2;SDS_P1;SDS_P2;PMS_P1;PMS_P2;Temp;Humidity;BMP_temperature;BMP_pressure;BME280_temperature;BME280_humidity;BME280_pressure;Samples;Min_cycle;Max_cycle;Signal;HPM_P1;HPM_P2
2021/01/15 00:15:00;;;;;;;12.00;7.80;;;;;;;18.74;33.58;101393.13;31236056;28;20299;-63
2021/01/15 00:30:01;;;;;;;10.48;7.00;;;;;;;18.58;33.89;101391.59;31238997;28;20292;-64
2021/01/15 00:45:02;;;;;;;10.17;7.40;;;;;;;18.46;34.10;101391.63;31287139;28;20044;-64
2021/01/15 01:00:07;;;;;;;10.32;7.10;;;;;;;18.34;34.53;101404.72;31352374;28;20318;-65
2021/01/15 01:15:09;;;;;;;10.40;7.40;;;;;;;18.25;34.79;101418.56;31383626;28;20033;-64
2021/01/15 01:30:10;;;;;;;10.02;7.00;;;;;;;18.16;35.17;101421.84;31382069;28;20044;-65
2021/01/15 01:45:12;;;;;;;10.65;6.72;;;;;;;18.09;35.22;101445.09;31277212;28;20050;-64
2021/01/15 02:00:14;;;;;;;9.30;6.80;;;;;;;18.03;35.38;101440.28;31238349;28;20526;-64
2021/01/15 02:15:20;;;;;;;8.70;6.65;;;;;;;17.98;35.67;101448.50;31254624;28;20104;-65
2021/01/15 02:30:39;;;;;;;10.13;7.20;;;;;;;17.95;35.45;101448.69;31236443;28;20038;-66
2021/01/15 02:45:43;;;;;;;8.45;6.57;;;;;;;17.93;35.70;101476.06;31341979;28;20467;-65
2021/01/15 03:00:44;;;;;;;8.25;6.43;;;;;;;17.88;35.99;101473.75;31339494;28;20099;-65
2021/01/15 03:15:45;;;;;;;9.13;6.20;;;;;;;17.82;36.12;101483.84;31353247;28;20021;-64
2021/01/15 03:30:46;;;;;;;8.25;5.50;;;;;;;17.76;36.08;101488.56;31371105;28;20066;-64
2021/01/15 03:45:48;;;;;;;7.97;5.47;;;;;;;17.72;36.23;101475.72;31279163;28;20038;-65
2021/01/15 04:00:49;;;;;;;8.60;6.03;;;;;;;17.66;36.36;101468.25;31227374;28;20650;-63
2021/01/15 04:15:49;;;;;;;8.38;5.40;;;;;;;17.57;36.39;101477.63;31240096;28;20033;-63
2021/01/15 04:30:51;;;;;;;7.75;5.80;;;;;;;17.52;36.42;101487.56;31238026;28;20053;-64
2021/01/15 04:45:51;;;;;;;8.30;5.88;;;;;;;17.47;36.52;101469.50;31130060;28;20476;-64
2021/01/15 05:00:56;;;;;;;8.63;5.90;;;;;;;17.45;36.80;101475.78;31080961;28;20030;-63
2021/01/15 05:15:57;;;;;;;8.05;5.22;;;;;;;17.42;36.87;101491.78;31097534;28;20064;-63
2021/01/15 05:30:58;;;;;;;9.20;5.75;;;;;;;17.37;36.89;101497.34;31094809;28;20050;-63
2021/01/15 05:46:16;;;;;;;6.47;5.13;;;;;;;17.33;37.10;101501.09;31210394;28;20030;-63
2021/01/15 06:01:17;;;;;;;6.00;4.72;;;;;;;17.26;37.02;101518.22;31223649;28;20072;-63
2021/01/15 06:16:19;;;;;;;7.85;4.70;;;;;;;17.22;37.07;101533.34;31257879;28;20032;-64
2021/01/15 06:31:20;;;;;;;7.22;4.78;;;;;;;17.16;36.95;101534.59;31329015;28;20075;-64
2021/01/15 06:46:23;;;;;;;6.70;4.47;;;;;;;17.13;37.06;101555.81;31268755;28;20442;-65
2021/01/15 07:01:26;;;;;;;7.93;4.75;;;;;;;17.13;36.96;101560.19;31246724;28;20041;-64
2021/01/15 07:16:28;;;;;;;6.40;4.28;;;;;;;17.13;36.91;101575.97;31249128;28;20060;-65
2021/01/15 07:31:29;;;;;;;9.77;5.40;;;;;;;14.75;31.38;101598.63;31256961;28;20071;-62
2021/01/15 07:46:46;;;;;;;11.88;7.75;;;;;;;11.86;34.58;101606.94;31270465;28;20048;-63
2021/01/15 08:01:47;;;;;;;9.60;5.38;;;;;;;13.40;38.55;101606.25;31254748;28;20033;-65
2021/01/15 08:16:48;;;;;;;8.18;4.15;;;;;;;15.22;36.98;101618.72;31203304;28;20036;-66
2021/01/15 08:31:50;;;;;;;6.43;3.55;;;;;;;16.25;35.64;101615.47;31216648;28;20048;-68
2021/01/15 08:46:51;;;;;;;5.55;3.40;;;;;;;16.91;34.69;101624.59;31238664;28;20030;-67
2021/01/15 09:01:56;;;;;;;6.78;4.25;;;;;;;17.09;29.85;101645.41;31238576;28;20087;-65
2021/01/15 09:16:57;;;;;;;6.07;2.72;;;;;;;17.45;34.05;101657.13;31204314;28;20033;-66
2021/01/15 09:31:58;;;;;;;4.95;2.72;;;;;;;17.79;34.38;101669.78;31272135;28;20048;-67
2021/01/15 09:47:00;;;;;;;10.15;7.28;;;;;;;16.88;25.75;101673.81;31241640;28;20480;-64
2021/01/15 10:02:01;;;;;;;9.40;5.85;;;;;;;17.02;33.52;101688.72;31243705;28;20026;-67
2021/01/15 10:17:02;;;;;;;8.07;5.88;;;;;;;18.11;32.69;101689.69;31278056;28;20029;-67
2021/01/15 10:32:03;;;;;;;7.60;5.10;;;;;;;18.80;32.08;101680.59;31263624;28;20459;-66
2021/01/15 10:47:04;;;;;;;7.13;4.95;;;;;;;19.23;31.82;101674.09;31258725;28;20322;-66
2021/01/15 11:02:05;;;;;;;6.40;4.60;;;;;;;19.38;32.17;101677.44;31295446;28;20033;-65
2021/01/15 11:17:06;;;;;;;5.77;4.30;;;;;;;19.38;31.39;101677.44;31224357;28;20310;-66
2021/01/15 11:32:07;;;;;;;6.67;4.80;;;;;;;19.33;31.72;101671.63;31241825;28;20288;-67
2021/01/15 11:47:08;;;;;;;7.80;5.70;;;;;;;19.36;31.12;101677.53;31231501;28;20296;-66
2021/01/15 12:02:09;;;;;;;6.50;5.10;;;;;;;19.53;31.39;101672.84;31215839;28;20296;-66
2021/01/15 12:17:10;;;;;;;8.03;5.70;;;;;;;19.70;31.56;101675.13;31229378;28;20314;-66
2021/01/15 12:32:11;;;;;;;8.13;5.40;;;;;;;19.41;32.23;101677.19;31098878;28;20298;-66
2021/01/15 12:47:12;;;;;;;8.60;5.50;;;;;;;19.56;32.29;101662.91;31097721;28;20293;-66
2021/01/15 13:02:13;;;;;;;9.60;5.80;;;;;;;19.65;32.57;101672.78;31152801;28;20300;-68
2021/01/15 13:17:14;;;;;;;10.90;5.97;;;;;;;19.79;32.65;101689.41;31117495;28;20294;-66
2021/01/15 13:32:15;;;;;;;9.93;7.20;;;;;;;19.88;32.24;101676.41;31269857;28;20299;-67
2021/01/15 13:47:16;;;;;;;89.67;67.20;;;;;;;19.30;30.38;101698.22;31270485;28;20039;-66
2021/01/15 14:02:17;;;;;;;25.67;19.70;;;;;;;19.53;33.05;101702.66;31278101;28;20296;-67
2021/01/15 14:17:18;;;;;;;22.13;17.20;;;;;;;19.76;32.37;101710.75;31312982;28;20032;-67
2021/01/15 14:32:19;;;;;;;20.33;16.47;;;;;;;19.91;32.93;101730.72;31252545;28;20292;-66
2021/01/15 14:47:20;;;;;;;16.37;12.63;;;;;;;19.93;28.65;101751.72;31274667;28;20297;-67
2021/01/15 15:02:21;;;;;;;18.70;14.60;;;;;;;19.91;32.62;101765.03;31229697;28;20661;-68
2021/01/15 15:17:22;;;;;;;17.63;14.63;;;;;;;19.93;33.28;101780.72;31266395;28;20281;-68
2021/01/15 15:32:23;;;;;;;17.73;13.40;;;;;;;20.03;33.53;101784.41;31257465;28;20549;-65
2021/01/15 15:47:24;;;;;;;16.08;12.98;;;;;;;20.07;33.72;101794.63;31223418;28;20346;-66
2021/01/15 16:02:25;;;;;;;16.03;12.57;;;;;;;20.09;33.89;101800.63;31235501;28;20029;-70
2021/01/15 16:17:26;;;;;;;15.07;12.30;;;;;;;20.11;33.60;101813.69;31239218;28;20774;-66
2021/01/15 16:32:30;;;;;;;13.50;10.13;;;;;;;19.79;31.87;101834.50;31287323;28;20300;-66
2021/01/15 16:47:31;;;;;;;12.48;9.43;;;;;;;19.87;33.35;101842.72;31232390;28;20347;-65
2021/01/15 17:02:32;;;;;;;12.27;9.10;;;;;;;19.96;32.68;101859.69;31237959;28;20037;-67
2021/01/15 17:17:39;;;;;;;12.40;9.13;;;;;;;19.99;32.86;101859.47;31240293;28;20021;-67
2021/01/15 17:32:45;;;;;;;11.65;9.55;;;;;;;20.07;32.60;101865.03;31224370;28;20300;-66
2021/01/15 17:47:47;;;;;;;11.90;9.10;;;;;;;20.25;32.32;101879.53;31269706;28;20030;-66
2021/01/15 18:02:48;;;;;;;12.55;10.07;;;;;;;20.04;32.04;101897.78;31234499;28;20569;-68
2021/01/15 18:17:49;;;;;;;13.55;10.57;;;;;;;19.75;30.31;101909.56;31237039;28;20029;-69
2021/01/15 18:32:51;;;;;;;12.80;10.32;;;;;;;19.71;31.13;101915.97;31172165;23;20062;-66
2021/01/15 18:47:53;;;;;;;11.65;9.38;;;;;;;19.67;30.72;101921.41;31157062;28;20044;-66
2021/01/15 19:02:54;;;;;;;12.80;9.68;;;;;;;19.65;31.00;101941.81;31189764;28;20065;-67
2021/01/15 19:18:08;;;;;;;14.47;9.97;;;;;;;19.64;30.61;101932.19;31204920;23;20507;-66
2021/01/15 19:33:09;;;;;;;4.35;3.20;;;;;;;18.62;20.10;101940.75;31207036;28;20308;-64
2021/01/15 19:48:11;;;;;;;3.85;2.47;;;;;;;13.10;22.65;101937.41;31352776;28;20660;-65
2021/01/15 20:03:13;;;;;;;5.55;3.90;;;;;;;15.73;31.86;101951.41;31319541;28;20032;-67
2021/01/15 20:18:15;;;;;;;6.65;3.90;;;;;;;17.83;30.36;101949.22;31335968;28;20111;-66
2021/01/15 20:33:16;;;;;;;7.28;4.75;;;;;;;19.00;30.24;101960.28;31301536;28;20041;-67
2021/01/15 20:48:17;;;;;;;5.80;4.23;;;;;;;19.71;30.44;101969.56;31337951;28;20104;-67
2021/01/15 21:03:18;;;;;;;6.33;4.40;;;;;;;20.18;30.39;101975.09;31329288;28;20294;-66
2021/01/15 21:18:19;;;;;;;5.90;4.10;;;;;;;20.46;30.20;101980.13;31358865;28;20300;-69
2021/01/15 21:33:20;;;;;;;6.13;4.05;;;;;;;20.63;30.40;101978.09;31365629;28;20302;-67
2021/01/15 21:48:21;;;;;;;7.87;5.03;;;;;;;20.48;28.79;101964.16;31406036;28;20039;-67
2021/01/15 22:03:22;;;;;;;6.60;4.50;;;;;;;19.99;29.50;101978.22;31357068;28;20821;-67
2021/01/15 22:18:25;;;;;;;7.43;4.90;;;;;;;20.20;29.62;101974.06;31385846;28;20300;-67
2021/01/15 22:33:26;;;;;;;7.07;5.25;;;;;;;20.21;29.08;101967.81;31335220;28;20771;-68
2021/01/15 22:48:28;;;;;;;7.70;5.97;;;;;;;20.16;29.72;101974.38;31329854;28;20497;-67
2021/01/15 23:03:29;;;;;;;8.40;5.75;;;;;;;20.13;30.67;101978.06;31359139;28;20287;-67
2021/01/15 23:18:29;;;;;;;8.80;6.57;;;;;;;20.03;30.67;101979.69;31357428;28;20053;-67
2021/01/15 23:33:30;;;;;;;9.80;7.37;;;;;;;20.00;31.27;101966.72;31308958;28;20287;-67
2021/01/15 23:48:31;;;;;;;8.40;6.67;;;;;;;20.00;32.03;101964.91;31300273;28;20287;-67
